sensor_id;sensor_type;location;lat;lon;timestamp;P1;durP1;ratioP1;P2;durP2;ratioP2
37115;SDS011;23025;41.996;23.098;2023-03-23T00:01:46;2.47;;;2.35;;
37115;SDS011;23025;41.996;23.098;2023-03-23T00:04:14;3.63;;;3.33;;
37115;SDS011;23025;41.996;23.098;2023-03-23T00:06:41;2.60;;;2.50;;
37115;SDS011;23025;41.996;23.098;2023-03-23T00:09:11;2.00;;;1.90;;
37115;SDS011;23025;41.996;23.098;2023-03-23T00:11:40;2.10;;;2.00;;
37115;SDS011;23025;41.996;23.098;2023-03-23T00:14:07;3.67;;;3.45;;
37115;SDS011;23025;41.996;23.098;2023-03-23T00:19:06;3.47;;;2.08;;
37115;SDS011;23025;41.996;23.098;2023-03-23T00:21:34;1.88;;;1.77;;
37115;SDS011;23025;41.996;23.098;2023-03-23T00:24:02;2.80;;;2.60;;
37115;SDS011;23025;41.996;23.098;2023-03-23T00:26:30;2.33;;;2.20;;
37115;SDS011;23025;41.996;23.098;2023-03-23T00:28:58;3.10;;;2.90;;
37115;SDS011;23025;41.996;23.098;2023-03-23T00:31:25;4.03;;;3.83;;
37115;SDS011;23025;41.996;23.098;2023-03-23T00:33:57;4.00;;;3.78;;
37115;SDS011;23025;41.996;23.098;2023-03-23T00:36:26;2.55;;;2.35;;
37115;SDS011;23025;41.996;23.098;2023-03-23T00:38:53;2.03;;;1.85;;
37115;SDS011;23025;41.996;23.098;2023-03-23T00:41:23;4.80;;;4.50;;
37115;SDS011;23025;41.996;23.098;2023-03-23T00:43:53;3.13;;;2.88;;
37115;SDS011;23025;41.996;23.098;2023-03-23T00:46:20;2.08;;;1.98;;
37115;SDS011;23025;41.996;23.098;2023-03-23T00:48:47;3.47;;;2.42;;
37115;SDS011;23025;41.996;23.098;2023-03-23T00:51:15;2.28;;;2.17;;
37115;SDS011;23025;41.996;23.098;2023-03-23T00:53:42;1.80;;;1.70;;
37115;SDS011;23025;41.996;23.098;2023-03-23T00:56:09;2.28;;;2.17;;
37115;SDS011;23025;41.996;23.098;2023-03-23T00:58:35;2.22;;;2.13;;
37115;SDS011;23025;41.996;23.098;2023-03-23T01:01:03;3.13;;;3.00;;
37115;SDS011;23025;41.996;23.098;2023-03-23T01:03:30;2.75;;;2.65;;
37115;SDS011;23025;41.996;23.098;2023-03-23T01:05:57;3.33;;;2.67;;
37115;SDS011;23025;41.996;23.098;2023-03-23T01:08:23;2.22;;;2.10;;
37115;SDS011;23025;41.996;23.098;2023-03-23T01:10:50;1.83;;;1.73;;
37115;SDS011;23025;41.996;23.098;2023-03-23T01:13:19;4.03;;;3.17;;
37115;SDS011;23025;41.996;23.098;2023-03-23T01:15:47;2.33;;;2.00;;
37115;SDS011;23025;41.996;23.098;2023-03-23T01:18:15;2.65;;;2.50;;
37115;SDS011;23025;41.996;23.098;2023-03-23T01:20:42;3.88;;;3.67;;
37115;SDS011;23025;41.996;23.098;2023-03-23T01:23:08;2.78;;;2.58;;
37115;SDS011;23025;41.996;23.098;2023-03-23T01:25:35;2.63;;;2.42;;
37115;SDS011;23025;41.996;23.098;2023-03-23T01:28:02;2.47;;;2.35;;
37115;SDS011;23025;41.996;23.098;2023-03-23T01:30:28;2.90;;;2.60;;
37115;SDS011;23025;41.996;23.098;2023-03-23T01:32:55;2.97;;;2.85;;
37115;SDS011;23025;41.996;23.098;2023-03-23T01:35:23;3.50;;;3.30;;
37115;SDS011;23025;41.996;23.098;2023-03-23T01:37:49;6.07;;;5.75;;
37115;SDS011;23025;41.996;23.098;2023-03-23T01:40:16;3.45;;;3.13;;
37115;SDS011;23025;41.996;23.098;2023-03-23T01:42:42;4.15;;;3.95;;
37115;SDS011;23025;41.996;23.098;2023-03-23T01:47:51;2.97;;;2.78;;
37115;SDS011;23025;41.996;23.098;2023-03-23T01:50:18;2.30;;;2.20;;
37115;SDS011;23025;41.996;23.098;2023-03-23T01:52:49;2.20;;;2.10;;
37115;SDS011;23025;41.996;23.098;2023-03-23T01:55:16;2.42;;;2.33;;
37115;SDS011;23025;41.996;23.098;2023-03-23T01:57:43;3.08;;;2.88;;
37115;SDS011;23025;41.996;23.098;2023-03-23T02:00:10;3.15;;;2.85;;
37115;SDS011;23025;41.996;23.098;2023-03-23T02:02:40;2.70;;;2.53;;
37115;SDS011;23025;41.996;23.098;2023-03-23T02:05:08;2.42;;;2.30;;
37115;SDS011;23025;41.996;23.098;2023-03-23T02:07:36;1.65;;;1.55;;
37115;SDS011;23025;41.996;23.098;2023-03-23T02:10:05;3.28;;;3.08;;
37115;SDS011;23025;41.996;23.098;2023-03-23T02:12:32;1.75;;;1.65;;
37115;SDS011;23025;41.996;23.098;2023-03-23T02:15:00;2.80;;;2.70;;
37115;SDS011;23025;41.996;23.098;2023-03-23T02:17:29;2.45;;;2.35;;
37115;SDS011;23025;41.996;23.098;2023-03-23T02:20:09;2.60;;;2.38;;
37115;SDS011;23025;41.996;23.098;2023-03-23T02:25:36;2.75;;;2.55;;
37115;SDS011;23025;41.996;23.098;2023-03-23T02:31:10;3.30;;;3.17;;
37115;SDS011;23025;41.996;23.098;2023-03-23T02:33:45;1.70;;;1.60;;
37115;SDS011;23025;41.996;23.098;2023-03-23T02:36:14;2.38;;;2.28;;
37115;SDS011;23025;41.996;23.098;2023-03-23T02:38:43;1.77;;;1.67;;
37115;SDS011;23025;41.996;23.098;2023-03-23T02:41:15;2.75;;;2.55;;
37115;SDS011;23025;41.996;23.098;2023-03-23T02:43:44;1.98;;;1.88;;
37115;SDS011;23025;41.996;23.098;2023-03-23T02:46:12;2.20;;;2.10;;
37115;SDS011;23025;41.996;23.098;2023-03-23T02:48:39;2.53;;;2.40;;
37115;SDS011;23025;41.996;23.098;2023-03-23T02:51:09;3.08;;;2.80;;
37115;SDS011;23025;41.996;23.098;2023-03-23T02:53:37;1.67;;;1.58;;
37115;SDS011;23025;41.996;23.098;2023-03-23T02:56:04;2.00;;;1.90;;
37115;SDS011;23025;41.996;23.098;2023-03-23T02:58:33;3.25;;;3.08;;
37115;SDS011;23025;41.996;23.098;2023-03-23T03:01:10;3.38;;;3.17;;
37115;SDS011;23025;41.996;23.098;2023-03-23T03:03:40;3.05;;;2.95;;
37115;SDS011;23025;41.996;23.098;2023-03-23T03:06:07;2.33;;;2.22;;
37115;SDS011;23025;41.996;23.098;2023-03-23T03:08:48;1.95;;;1.85;;
37115;SDS011;23025;41.996;23.098;2023-03-23T03:11:17;2.40;;;2.15;;
37115;SDS011;23025;41.996;23.098;2023-03-23T03:13:47;1.45;;;1.42;;
37115;SDS011;23025;41.996;23.098;2023-03-23T03:16:20;3.75;;;3.53;;
37115;SDS011;23025;41.996;23.098;2023-03-23T03:18:49;2.72;;;2.63;;
37115;SDS011;23025;41.996;23.098;2023-03-23T03:21:18;2.67;;;2.58;;
37115;SDS011;23025;41.996;23.098;2023-03-23T03:23:52;2.47;;;2.38;;
37115;SDS011;23025;41.996;23.098;2023-03-23T03:26:19;5.63;;;2.88;;
37115;SDS011;23025;41.996;23.098;2023-03-23T03:28:47;1.08;;;1.08;;
37115;SDS011;23025;41.996;23.098;2023-03-23T03:31:13;1.80;;;1.70;;
37115;SDS011;23025;41.996;23.098;2023-03-23T03:33:41;1.15;;;1.15;;
37115;SDS011;23025;41.996;23.098;2023-03-23T03:36:08;2.67;;;2.47;;
37115;SDS011;23025;41.996;23.098;2023-03-23T03:38:41;2.53;;;2.35;;
37115;SDS011;23025;41.996;23.098;2023-03-23T03:41:09;2.00;;;1.90;;
37115;SDS011;23025;41.996;23.098;2023-03-23T03:43:35;2.55;;;2.35;;
37115;SDS011;23025;41.996;23.098;2023-03-23T03:46:02;2.22;;;1.27;;
37115;SDS011;23025;41.996;23.098;2023-03-23T03:48:29;2.90;;;2.65;;
37115;SDS011;23025;41.996;23.098;2023-03-23T03:50:55;2.92;;;2.83;;
37115;SDS011;23025;41.996;23.098;2023-03-23T03:53:22;2.58;;;2.33;;
37115;SDS011;23025;41.996;23.098;2023-03-23T03:55:49;3.50;;;3.30;;
37115;SDS011;23025;41.996;23.098;2023-03-23T03:58:17;2.45;;;2.35;;
37115;SDS011;23025;41.996;23.098;2023-03-23T04:00:44;3.10;;;2.80;;
37115;SDS011;23025;41.996;23.098;2023-03-23T04:03:13;3.22;;;3.10;;
37115;SDS011;23025;41.996;23.098;2023-03-23T04:05:40;4.13;;;3.83;;
37115;SDS011;23025;41.996;23.098;2023-03-23T04:08:06;4.68;;;4.47;;
37115;SDS011;23025;41.996;23.098;2023-03-23T04:10:33;1.38;;;1.27;;
37115;SDS011;23025;41.996;23.098;2023-03-23T04:12:59;3.58;;;3.35;;
37115;SDS011;23025;41.996;23.098;2023-03-23T04:15:27;2.20;;;2.10;;
37115;SDS011;23025;41.996;23.098;2023-03-23T04:17:54;1.30;;;1.30;;
37115;SDS011;23025;41.996;23.098;2023-03-23T04:20:21;2.33;;;2.20;;
37115;SDS011;23025;41.996;23.098;2023-03-23T04:22:48;2.25;;;2.05;;
37115;SDS011;23025;41.996;23.098;2023-03-23T04:25:15;2.38;;;2.28;;
37115;SDS011;23025;41.996;23.098;2023-03-23T04:27:42;3.47;;;3.17;;
37115;SDS011;23025;41.996;23.098;2023-03-23T04:30:12;2.83;;;2.63;;
37115;SDS011;23025;41.996;23.098;2023-03-23T04:32:40;3.83;;;3.53;;
37115;SDS011;23025;41.996;23.098;2023-03-23T04:35:08;1.35;;;1.33;;
37115;SDS011;23025;41.996;23.098;2023-03-23T04:37:36;2.15;;;2.05;;
37115;SDS011;23025;41.996;23.098;2023-03-23T04:40:02;2.00;;;1.90;;
37115;SDS011;23025;41.996;23.098;2023-03-23T04:42:35;1.80;;;1.70;;
37115;SDS011;23025;41.996;23.098;2023-03-23T04:45:02;1.75;;;1.65;;
37115;SDS011;23025;41.996;23.098;2023-03-23T04:47:31;2.60;;;2.40;;
37115;SDS011;23025;41.996;23.098;2023-03-23T04:49:59;1.95;;;1.85;;
37115;SDS011;23025;41.996;23.098;2023-03-23T04:52:26;4.20;;;3.50;;
37115;SDS011;23025;41.996;23.098;2023-03-23T04:54:53;3.50;;;3.30;;
37115;SDS011;23025;41.996;23.098;2023-03-23T04:57:20;2.75;;;2.58;;
37115;SDS011;23025;41.996;23.098;2023-03-23T04:59:47;2.83;;;2.65;;
37115;SDS011;23025;41.996;23.098;2023-03-23T05:02:13;2.95;;;2.10;;
37115;SDS011;23025;41.996;23.098;2023-03-23T05:04:42;2.53;;;2.33;;
37115;SDS011;23025;41.996;23.098;2023-03-23T05:07:10;3.15;;;2.95;;
37115;SDS011;23025;41.996;23.098;2023-03-23T05:09:37;2.42;;;2.30;;
37115;SDS011;23025;41.996;23.098;2023-03-23T05:12:04;1.75;;;1.65;;
37115;SDS011;23025;41.996;23.098;2023-03-23T05:14:30;2.30;;;2.20;;
37115;SDS011;23025;41.996;23.098;2023-03-23T05:16:57;2.08;;;1.98;;
37115;SDS011;23025;41.996;23.098;2023-03-23T05:19:23;2.40;;;2.30;;
37115;SDS011;23025;41.996;23.098;2023-03-23T05:21:50;4.25;;;3.95;;
37115;SDS011;23025;41.996;23.098;2023-03-23T05:24:18;2.10;;;1.98;;
37115;SDS011;23025;41.996;23.098;2023-03-23T05:26:44;4.43;;;4.13;;
37115;SDS011;23025;41.996;23.098;2023-03-23T05:29:13;2.92;;;2.83;;
37115;SDS011;23025;41.996;23.098;2023-03-23T05:31:40;4.45;;;4.18;;
37115;SDS011;23025;41.996;23.098;2023-03-23T05:34:07;5.22;;;4.18;;
37115;SDS011;23025;41.996;23.098;2023-03-23T05:36:33;3.15;;;2.75;;
37115;SDS011;23025;41.996;23.098;2023-03-23T05:39:00;4.35;;;4.05;;
37115;SDS011;23025;41.996;23.098;2023-03-23T05:41:30;4.63;;;4.22;;
37115;SDS011;23025;41.996;23.098;2023-03-23T05:43:56;13.95;;;4.45;;
37115;SDS011;23025;41.996;23.098;2023-03-23T05:46:23;4.95;;;4.20;;
37115;SDS011;23025;41.996;23.098;2023-03-23T05:48:51;2.95;;;2.75;;
37115;SDS011;23025;41.996;23.098;2023-03-23T05:51:19;4.28;;;3.78;;
37115;SDS011;23025;41.996;23.098;2023-03-23T05:53:45;3.38;;;3.17;;
37115;SDS011;23025;41.996;23.098;2023-03-23T05:56:12;3.92;;;3.60;;
37115;SDS011;23025;41.996;23.098;2023-03-23T05:58:40;4.80;;;4.50;;
37115;SDS011;23025;41.996;23.098;2023-03-23T06:01:07;4.30;;;4.00;;
37115;SDS011;23025;41.996;23.098;2023-03-23T06:03:33;8.18;;;4.10;;
37115;SDS011;23025;41.996;23.098;2023-03-23T06:06:01;3.97;;;3.78;;
37115;SDS011;23025;41.996;23.098;2023-03-23T06:08:28;3.80;;;3.22;;
37115;SDS011;23025;41.996;23.098;2023-03-23T06:10:54;4.07;;;3.78;;
37115;SDS011;23025;41.996;23.098;2023-03-23T06:13:21;3.00;;;2.80;;
37115;SDS011;23025;41.996;23.098;2023-03-23T06:15:49;5.63;;;5.10;;
37115;SDS011;23025;41.996;23.098;2023-03-23T06:18:16;3.53;;;3.22;;
37115;SDS011;23025;41.996;23.098;2023-03-23T06:20:42;3.92;;;3.70;;
37115;SDS011;23025;41.996;23.098;2023-03-23T06:23:09;4.65;;;4.35;;
37115;SDS011;23025;41.996;23.098;2023-03-23T06:25:36;3.05;;;2.85;;
37115;SDS011;23025;41.996;23.098;2023-03-23T06:28:02;4.88;;;4.57;;
37115;SDS011;23025;41.996;23.098;2023-03-23T06:30:29;6.03;;;5.63;;
37115;SDS011;23025;41.996;23.098;2023-03-23T06:32:57;6.50;;;6.05;;
37115;SDS011;23025;41.996;23.098;2023-03-23T06:35:24;4.90;;;4.28;;
37115;SDS011;23025;41.996;23.098;2023-03-23T06:37:50;8.32;;;5.85;;
37115;SDS011;23025;41.996;23.098;2023-03-23T06:40:18;4.88;;;4.47;;
37115;SDS011;23025;41.996;23.098;2023-03-23T06:42:46;5.35;;;4.90;;
37115;SDS011;23025;41.996;23.098;2023-03-23T06:45:13;4.75;;;4.32;;
37115;SDS011;23025;41.996;23.098;2023-03-23T06:47:39;4.90;;;4.55;;
37115;SDS011;23025;41.996;23.098;2023-03-23T06:50:08;6.32;;;5.80;;
37115;SDS011;23025;41.996;23.098;2023-03-23T06:52:35;4.13;;;3.83;;
37115;SDS011;23025;41.996;23.098;2023-03-23T06:55:02;6.00;;;5.50;;
37115;SDS011;23025;41.996;23.098;2023-03-23T06:57:28;6.20;;;5.60;;
37115;SDS011;23025;41.996;23.098;2023-03-23T06:59:55;5.00;;;4.50;;
37115;SDS011;23025;41.996;23.098;2023-03-23T07:02:21;6.00;;;5.22;;
37115;SDS011;23025;41.996;23.098;2023-03-23T07:04:48;8.35;;;6.50;;
37115;SDS011;23025;41.996;23.098;2023-03-23T07:07:17;4.28;;;4.05;;
37115;SDS011;23025;41.996;23.098;2023-03-23T07:09:43;6.28;;;5.70;;
37115;SDS011;23025;41.996;23.098;2023-03-23T07:12:10;5.53;;;4.82;;
37115;SDS011;23025;41.996;23.098;2023-03-23T07:14:37;5.05;;;4.75;;
37115;SDS011;23025;41.996;23.098;2023-03-23T07:17:03;7.78;;;5.63;;
37115;SDS011;23025;41.996;23.098;2023-03-23T07:19:31;8.32;;;7.63;;
37115;SDS011;23025;41.996;23.098;2023-03-23T07:21:57;6.65;;;6.25;;
37115;SDS011;23025;41.996;23.098;2023-03-23T07:24:25;7.60;;;7.10;;
37115;SDS011;23025;41.996;23.098;2023-03-23T07:26:52;5.07;;;4.72;;
37115;SDS011;23025;41.996;23.098;2023-03-23T07:29:19;6.38;;;5.95;;
37115;SDS011;23025;41.996;23.098;2023-03-23T07:31:45;5.72;;;5.38;;
37115;SDS011;23025;41.996;23.098;2023-03-23T07:34:12;6.50;;;6.20;;
37115;SDS011;23025;41.996;23.098;2023-03-23T07:36:38;7.05;;;6.45;;
37115;SDS011;23025;41.996;23.098;2023-03-23T07:39:05;7.20;;;6.60;;
37115;SDS011;23025;41.996;23.098;2023-03-23T07:41:33;7.45;;;6.72;;
37115;SDS011;23025;41.996;23.098;2023-03-23T07:43:59;6.13;;;5.72;;
37115;SDS011;23025;41.996;23.098;2023-03-23T07:46:26;9.75;;;9.10;;
37115;SDS011;23025;41.996;23.098;2023-03-23T07:48:52;7.07;;;6.68;;
37115;SDS011;23025;41.996;23.098;2023-03-23T07:51:19;5.78;;;5.38;;
37115;SDS011;23025;41.996;23.098;2023-03-23T07:53:46;8.90;;;8.40;;
37115;SDS011;23025;41.996;23.098;2023-03-23T07:56:13;7.60;;;6.97;;
37115;SDS011;23025;41.996;23.098;2023-03-23T07:58:41;7.90;;;7.13;;
37115;SDS011;23025;41.996;23.098;2023-03-23T08:01:09;6.40;;;6.07;;
37115;SDS011;23025;41.996;23.098;2023-03-23T08:03:36;7.55;;;6.95;;
37115;SDS011;23025;41.996;23.098;2023-03-23T08:06:03;7.13;;;6.72;;
37115;SDS011;23025;41.996;23.098;2023-03-23T08:08:30;7.43;;;6.68;;
37115;SDS011;23025;41.996;23.098;2023-03-23T08:10:56;8.07;;;7.60;;
37115;SDS011;23025;41.996;23.098;2023-03-23T08:13:23;4.90;;;4.60;;
37115;SDS011;23025;41.996;23.098;2023-03-23T08:15:52;7.47;;;6.97;;
37115;SDS011;23025;41.996;23.098;2023-03-23T08:18:18;9.02;;;8.23;;
37115;SDS011;23025;41.996;23.098;2023-03-23T08:20:45;8.93;;;8.13;;
37115;SDS011;23025;41.996;23.098;2023-03-23T08:23:12;7.55;;;6.90;;
37115;SDS011;23025;41.996;23.098;2023-03-23T08:25:40;9.05;;;8.45;;
37115;SDS011;23025;41.996;23.098;2023-03-23T08:28:07;10.70;;;10.20;;
37115;SDS011;23025;41.996;23.098;2023-03-23T08:30:34;9.45;;;8.70;;
37115;SDS011;23025;41.996;23.098;2023-03-23T08:33:04;8.82;;;8.23;;
37115;SDS011;23025;41.996;23.098;2023-03-23T08:35:31;14.10;;;12.93;;
37115;SDS011;23025;41.996;23.098;2023-03-23T08:37:57;8.65;;;8.18;;
37115;SDS011;23025;41.996;23.098;2023-03-23T08:40:24;8.70;;;8.07;;
37115;SDS011;23025;41.996;23.098;2023-03-23T08:42:52;11.32;;;10.55;;
37115;SDS011;23025;41.996;23.098;2023-03-23T08:45:20;8.30;;;7.72;;
37115;SDS011;23025;41.996;23.098;2023-03-23T08:47:47;8.52;;;8.02;;
37115;SDS011;23025;41.996;23.098;2023-03-23T08:50:16;10.57;;;9.98;;
37115;SDS011;23025;41.996;23.098;2023-03-23T08:52:43;9.23;;;8.63;;
37115;SDS011;23025;41.996;23.098;2023-03-23T08:55:09;11.55;;;10.88;;
37115;SDS011;23025;41.996;23.098;2023-03-23T08:57:36;10.02;;;9.43;;
37115;SDS011;23025;41.996;23.098;2023-03-23T09:00:03;9.07;;;8.57;;
37115;SDS011;23025;41.996;23.098;2023-03-23T09:02:40;10.07;;;9.57;;
37115;SDS011;23025;41.996;23.098;2023-03-23T09:05:14;9.05;;;8.45;;
37115;SDS011;23025;41.996;23.098;2023-03-23T09:07:43;8.88;;;8.05;;
37115;SDS011;23025;41.996;23.098;2023-03-23T09:10:11;9.07;;;8.38;;
37115;SDS011;23025;41.996;23.098;2023-03-23T09:12:38;13.55;;;12.63;;
37115;SDS011;23025;41.996;23.098;2023-03-23T09:15:05;9.60;;;8.95;;
37115;SDS011;23025;41.996;23.098;2023-03-23T09:17:34;11.70;;;10.98;;
37115;SDS011;23025;41.996;23.098;2023-03-23T09:20:01;9.20;;;8.35;;
37115;SDS011;23025;41.996;23.098;2023-03-23T09:22:29;11.85;;;11.18;;
37115;SDS011;23025;41.996;23.098;2023-03-23T09:24:57;11.27;;;10.50;;
37115;SDS011;23025;41.996;23.098;2023-03-23T09:27:23;10.13;;;9.45;;
37115;SDS011;23025;41.996;23.098;2023-03-23T09:29:51;9.48;;;8.90;;
37115;SDS011;23025;41.996;23.098;2023-03-23T09:32:17;11.85;;;11.15;;
37115;SDS011;23025;41.996;23.098;2023-03-23T09:34:45;11.23;;;10.18;;
37115;SDS011;23025;41.996;23.098;2023-03-23T09:37:11;11.75;;;10.80;;
37115;SDS011;23025;41.996;23.098;2023-03-23T09:39:39;14.35;;;13.52;;
37115;SDS011;23025;41.996;23.098;2023-03-23T09:42:11;13.30;;;12.40;;
37115;SDS011;23025;41.996;23.098;2023-03-23T09:44:42;10.77;;;10.05;;
37115;SDS011;23025;41.996;23.098;2023-03-23T09:47:13;16.42;;;15.43;;
37115;SDS011;23025;41.996;23.098;2023-03-23T09:49:43;11.48;;;10.77;;
37115;SDS011;23025;41.996;23.098;2023-03-23T09:52:11;11.48;;;10.88;;
37115;SDS011;23025;41.996;23.098;2023-03-23T09:54:39;13.32;;;12.52;;
37115;SDS011;23025;41.996;23.098;2023-03-23T09:57:11;12.38;;;11.68;;
37115;SDS011;23025;41.996;23.098;2023-03-23T09:59:41;11.00;;;10.40;;
37115;SDS011;23025;41.996;23.098;2023-03-23T10:02:11;12.30;;;11.45;;
37115;SDS011;23025;41.996;23.098;2023-03-23T10:04:39;12.68;;;12.07;;
37115;SDS011;23025;41.996;23.098;2023-03-23T10:07:09;10.70;;;10.00;;
37115;SDS011;23025;41.996;23.098;2023-03-23T10:09:36;12.82;;;12.07;;
37115;SDS011;23025;41.996;23.098;2023-03-23T10:12:05;16.85;;;16.00;;
37115;SDS011;23025;41.996;23.098;2023-03-23T10:14:37;13.13;;;12.07;;
37115;SDS011;23025;41.996;23.098;2023-03-23T10:17:09;11.55;;;10.98;;
37115;SDS011;23025;41.996;23.098;2023-03-23T10:19:40;11.32;;;10.73;;
37115;SDS011;23025;41.996;23.098;2023-03-23T10:22:09;9.88;;;9.38;;
37115;SDS011;23025;41.996;23.098;2023-03-23T10:24:36;13.60;;;12.90;;
37115;SDS011;23025;41.996;23.098;2023-03-23T10:27:07;10.77;;;10.10;;
37115;SDS011;23025;41.996;23.098;2023-03-23T10:29:39;12.40;;;11.68;;
37115;SDS011;23025;41.996;23.098;2023-03-23T10:32:10;11.07;;;10.48;;
37115;SDS011;23025;41.996;23.098;2023-03-23T10:34:40;14.40;;;13.50;;
37115;SDS011;23025;41.996;23.098;2023-03-23T10:37:10;11.27;;;10.60;;
37115;SDS011;23025;41.996;23.098;2023-03-23T10:39:40;14.23;;;13.13;;
37115;SDS011;23025;41.996;23.098;2023-03-23T10:44:34;10.77;;;10.25;;
37115;SDS011;23025;41.996;23.098;2023-03-23T10:47:03;11.55;;;10.95;;
37115;SDS011;23025;41.996;23.098;2023-03-23T10:49:31;13.88;;;13.20;;
37115;SDS011;23025;41.996;23.098;2023-03-23T10:52:00;9.20;;;8.70;;
37115;SDS011;23025;41.996;23.098;2023-03-23T10:54:32;12.13;;;11.52;;
37115;SDS011;23025;41.996;23.098;2023-03-23T10:57:00;12.93;;;12.02;;
37115;SDS011;23025;41.996;23.098;2023-03-23T10:59:27;9.60;;;9.00;;
37115;SDS011;23025;41.996;23.098;2023-03-23T11:01:55;10.88;;;10.38;;
37115;SDS011;23025;41.996;23.098;2023-03-23T11:04:23;10.68;;;10.10;;
37115;SDS011;23025;41.996;23.098;2023-03-23T11:06:52;13.73;;;13.10;;
37115;SDS011;23025;41.996;23.098;2023-03-23T11:09:19;16.73;;;15.70;;
37115;SDS011;23025;41.996;23.098;2023-03-23T11:11:48;16.52;;;15.80;;
37115;SDS011;23025;41.996;23.098;2023-03-23T11:14:16;12.25;;;11.63;;
37115;SDS011;23025;41.996;23.098;2023-03-23T11:16:45;13.13;;;12.48;;
37115;SDS011;23025;41.996;23.098;2023-03-23T11:19:13;12.55;;;11.95;;
37115;SDS011;23025;41.996;23.098;2023-03-23T11:21:41;14.25;;;13.55;;
37115;SDS011;23025;41.996;23.098;2023-03-23T11:24:11;15.10;;;14.30;;
37115;SDS011;23025;41.996;23.098;2023-03-23T11:26:38;13.48;;;12.77;;
37115;SDS011;23025;41.996;23.098;2023-03-23T11:29:05;13.02;;;12.43;;
37115;SDS011;23025;41.996;23.098;2023-03-23T11:31:33;12.30;;;11.70;;
37115;SDS011;23025;41.996;23.098;2023-03-23T11:34:01;14.40;;;13.65;;
37115;SDS011;23025;41.996;23.098;2023-03-23T11:36:29;17.95;;;17.02;;
37115;SDS011;23025;41.996;23.098;2023-03-23T11:38:58;13.00;;;12.38;;
37115;SDS011;23025;41.996;23.098;2023-03-23T11:41:25;14.23;;;13.52;;
37115;SDS011;23025;41.996;23.098;2023-03-23T11:43:54;14.82;;;14.13;;
37115;SDS011;23025;41.996;23.098;2023-03-23T11:46:25;13.27;;;12.68;;
37115;SDS011;23025;41.996;23.098;2023-03-23T11:48:55;11.60;;;11.00;;
37115;SDS011;23025;41.996;23.098;2023-03-23T11:51:25;13.93;;;13.10;;
37115;SDS011;23025;41.996;23.098;2023-03-23T11:53:55;12.63;;;11.90;;
37115;SDS011;23025;41.996;23.098;2023-03-23T11:56:25;12.45;;;11.85;;
37115;SDS011;23025;41.996;23.098;2023-03-23T11:58:53;13.57;;;12.77;;
37115;SDS011;23025;41.996;23.098;2023-03-23T12:01:38;13.60;;;12.88;;
37115;SDS011;23025;41.996;23.098;2023-03-23T12:09:56;13.68;;;12.98;;
37115;SDS011;23025;41.996;23.098;2023-03-23T12:12:32;9.40;;;9.00;;
37115;SDS011;23025;41.996;23.098;2023-03-23T12:17:30;11.20;;;10.70;;
37115;SDS011;23025;41.996;23.098;2023-03-23T12:20:04;9.15;;;8.73;;
37115;SDS011;23025;41.996;23.098;2023-03-23T12:22:39;10.48;;;10.02;;
37115;SDS011;23025;41.996;23.098;2023-03-23T12:25:12;12.82;;;12.15;;
37115;SDS011;23025;41.996;23.098;2023-03-23T12:27:47;12.20;;;11.60;;
37115;SDS011;23025;41.996;23.098;2023-03-23T12:30:19;14.18;;;13.45;;
37115;SDS011;23025;41.996;23.098;2023-03-23T12:32:54;13.38;;;12.55;;
37115;SDS011;23025;41.996;23.098;2023-03-23T12:35:30;11.10;;;10.48;;
37115;SDS011;23025;41.996;23.098;2023-03-23T12:38:03;12.10;;;11.50;;
37115;SDS011;23025;41.996;23.098;2023-03-23T12:40:35;11.85;;;11.23;;
37115;SDS011;23025;41.996;23.098;2023-03-23T12:43:08;10.13;;;9.40;;
37115;SDS011;23025;41.996;23.098;2023-03-23T12:48:26;12.93;;;12.32;;
37115;SDS011;23025;41.996;23.098;2023-03-23T12:51:10;10.73;;;10.23;;
37115;SDS011;23025;41.996;23.098;2023-03-23T12:53:42;10.15;;;9.57;;
37115;SDS011;23025;41.996;23.098;2023-03-23T12:56:11;9.55;;;9.07;;
37115;SDS011;23025;41.996;23.098;2023-03-23T12:58:40;10.27;;;9.77;;
37115;SDS011;23025;41.996;23.098;2023-03-23T13:01:09;11.07;;;10.45;;
37115;SDS011;23025;41.996;23.098;2023-03-23T13:03:38;13.10;;;12.43;;
37115;SDS011;23025;41.996;23.098;2023-03-23T13:06:08;14.32;;;12.95;;
37115;SDS011;23025;41.996;23.098;2023-03-23T13:08:39;12.82;;;12.18;;
37115;SDS011;23025;41.996;23.098;2023-03-23T13:11:08;11.15;;;10.65;;
37115;SDS011;23025;41.996;23.098;2023-03-23T13:16:05;13.52;;;12.82;;
37115;SDS011;23025;41.996;23.098;2023-03-23T13:18:37;13.15;;;12.40;;
37115;SDS011;23025;41.996;23.098;2023-03-23T13:21:09;13.48;;;12.85;;
37115;SDS011;23025;41.996;23.098;2023-03-23T13:23:38;10.55;;;10.00;;
37115;SDS011;23025;41.996;23.098;2023-03-23T13:26:07;12.35;;;11.75;;
37115;SDS011;23025;41.996;23.098;2023-03-23T13:31:21;11.60;;;11.10;;
37115;SDS011;23025;41.996;23.098;2023-03-23T13:33:51;11.07;;;10.57;;
37115;SDS011;23025;41.996;23.098;2023-03-23T13:36:25;13.00;;;12.35;;
37115;SDS011;23025;41.996;23.098;2023-03-23T13:38:52;14.50;;;13.88;;
37115;SDS011;23025;41.996;23.098;2023-03-23T13:41:19;11.35;;;10.73;;
37115;SDS011;23025;41.996;23.098;2023-03-23T13:43:46;12.63;;;11.95;;
37115;SDS011;23025;41.996;23.098;2023-03-23T13:46:25;15.45;;;14.68;;
37115;SDS011;23025;41.996;23.098;2023-03-23T13:49:02;11.48;;;10.93;;
37115;SDS011;23025;41.996;23.098;2023-03-23T13:51:33;13.60;;;13.00;;
37115;SDS011;23025;41.996;23.098;2023-03-23T13:56:50;14.25;;;13.57;;
37115;SDS011;23025;41.996;23.098;2023-03-23T13:59:28;15.50;;;14.82;;
37115;SDS011;23025;41.996;23.098;2023-03-23T14:01:57;11.38;;;10.77;;
37115;SDS011;23025;41.996;23.098;2023-03-23T14:04:30;11.18;;;10.60;;
37115;SDS011;23025;41.996;23.098;2023-03-23T14:07:08;15.23;;;14.43;;
37115;SDS011;23025;41.996;23.098;2023-03-23T14:09:37;12.43;;;11.68;;
37115;SDS011;23025;41.996;23.098;2023-03-23T14:12:05;16.88;;;15.98;;
37115;SDS011;23025;41.996;23.098;2023-03-23T14:14:40;17.25;;;16.30;;
37115;SDS011;23025;41.996;23.098;2023-03-23T14:17:12;13.73;;;13.13;;
37115;SDS011;23025;41.996;23.098;2023-03-23T14:19:40;13.90;;;13.30;;
37115;SDS011;23025;41.996;23.098;2023-03-23T14:22:16;13.02;;;12.43;;
37115;SDS011;23025;41.996;23.098;2023-03-23T14:24:43;13.40;;;12.80;;
37115;SDS011;23025;41.996;23.098;2023-03-23T14:27:10;12.15;;;11.23;;
37115;SDS011;23025;41.996;23.098;2023-03-23T14:29:37;11.48;;;10.98;;
37115;SDS011;23025;41.996;23.098;2023-03-23T14:32:04;10.02;;;9.52;;
37115;SDS011;23025;41.996;23.098;2023-03-23T14:34:33;12.77;;;11.98;;
37115;SDS011;23025;41.996;23.098;2023-03-23T14:37:00;12.07;;;11.48;;
37115;SDS011;23025;41.996;23.098;2023-03-23T14:39:27;9.77;;;9.27;;
37115;SDS011;23025;41.996;23.098;2023-03-23T14:41:54;10.77;;;10.20;;
37115;SDS011;23025;41.996;23.098;2023-03-23T14:44:23;8.13;;;7.72;;
37115;SDS011;23025;41.996;23.098;2023-03-23T14:46:50;10.50;;;10.05;;
37115;SDS011;23025;41.996;23.098;2023-03-23T14:49:19;15.35;;;14.55;;
37115;SDS011;23025;41.996;23.098;2023-03-23T14:51:49;10.90;;;10.40;;
37115;SDS011;23025;41.996;23.098;2023-03-23T14:54:18;13.07;;;12.48;;
37115;SDS011;23025;41.996;23.098;2023-03-23T14:56:47;10.35;;;9.85;;
37115;SDS011;23025;41.996;23.098;2023-03-23T14:59:13;12.50;;;11.95;;
37115;SDS011;23025;41.996;23.098;2023-03-23T15:01:40;12.02;;;11.52;;
37115;SDS011;23025;41.996;23.098;2023-03-23T15:04:09;12.90;;;12.25;;
37115;SDS011;23025;41.996;23.098;2023-03-23T15:06:37;12.10;;;11.52;;